createdAt,value
2023-03-26T00:01:37.067Z,67.20
2023-03-26T00:04:05.929Z,65.70
2023-03-26T00:06:37.825Z,61.80
2023-03-26T00:09:06.586Z,60.80
2023-03-26T00:11:33.872Z,64.32
2023-03-26T00:14:00.995Z,66.88
2023-03-26T00:16:29.834Z,67.32
2023-03-26T00:18:57.989Z,60.08
2023-03-26T00:21:29.198Z,61.00
2023-03-26T00:24:01.550Z,65.70
2023-03-26T00:26:31.271Z,68.82
2023-03-26T00:28:58.867Z,62.27
2023-03-26T00:31:29.594Z,55.85
2023-03-26T00:33:56.821Z,61.22
2023-03-26T00:36:27.739Z,61.55
2023-03-26T00:38:55.070Z,73.53
2023-03-26T00:41:28.542Z,68.25
2023-03-26T00:43:57.323Z,59.95
2023-03-26T00:46:30.039Z,53.90
2023-03-26T00:49:00.345Z,53.92
2023-03-26T00:51:28.107Z,47.63
2023-03-26T00:53:55.659Z,44.20
2023-03-26T00:56:22.808Z,48.28
2023-03-26T00:58:50.375Z,60.55
2023-03-26T01:01:28.759Z,63.58
2023-03-26T01:04:08.416Z,77.28
2023-03-26T01:06:37.330Z,78.00
2023-03-26T01:09:16.385Z,76.78
2023-03-26T01:11:43.505Z,78.75
2023-03-26T01:14:30.971Z,71.78
2023-03-26T01:16:59.835Z,56.20
2023-03-26T01:19:45.421Z,51.92
2023-03-26T01:22:20.306Z,48.30
2023-03-26T01:24:53.491Z,52.08
2023-03-26T01:27:26.030Z,55.83
2023-03-26T01:29:57.894Z,55.22
2023-03-26T01:32:28.030Z,61.88
2023-03-26T01:35:24.947Z,67.05
2023-03-26T01:38:11.153Z,61.88
2023-03-26T01:41:22.763Z,53.00
2023-03-26T01:44:21.682Z,43.13
2023-03-26T01:46:48.742Z,46.25
2023-03-26T01:49:16.001Z,38.58
2023-03-26T01:51:43.123Z,42.22
2023-03-26T01:54:13.884Z,45.45
2023-03-26T01:57:04.348Z,48.58
2023-03-26T01:59:49.132Z,49.80
2023-03-26T02:02:43.217Z,44.53
2023-03-26T02:05:16.457Z,52.95
2023-03-26T02:08:06.377Z,53.78
2023-03-26T02:10:36.921Z,56.70
2023-03-26T02:13:03.965Z,58.78
2023-03-26T02:15:31.139Z,63.92
2023-03-26T02:17:59.875Z,63.70
2023-03-26T02:20:30.268Z,56.83
2023-03-26T02:22:57.694Z,60.42
2023-03-26T02:25:24.727Z,59.83
2023-03-26T02:27:52.428Z,57.28
2023-03-26T02:30:21.798Z,58.05
2023-03-26T02:32:52.472Z,60.70
2023-03-26T02:37:51.139Z,48.63
2023-03-26T02:40:22.515Z,42.17
2023-03-26T02:42:49.737Z,43.00
2023-03-26T02:45:16.893Z,43.03
2023-03-26T02:47:46.160Z,40.85
2023-03-26T02:50:13.387Z,39.55
2023-03-26T02:52:40.484Z,43.72
2023-03-26T02:55:07.873Z,46.13
2023-03-26T02:57:34.978Z,48.05
2023-03-26T03:00:06.015Z,53.50
2023-03-26T03:02:38.905Z,57.90
2023-03-26T03:05:08.108Z,67.65
2023-03-26T03:07:38.016Z,61.20
2023-03-26T03:10:08.882Z,56.58
2023-03-26T03:12:36.946Z,57.38
2023-03-26T03:15:04.347Z,60.65
2023-03-26T03:17:31.497Z,56.10
2023-03-26T03:19:58.594Z,57.08
2023-03-26T03:22:25.621Z,64.75
2023-03-26T03:24:52.690Z,61.50
2023-03-26T03:27:21.576Z,56.80
2023-03-26T03:29:48.633Z,65.10
2023-03-26T03:32:15.990Z,66.07
2023-03-26T03:34:43.061Z,69.30
2023-03-26T03:37:10.118Z,65.63
2023-03-26T03:39:37.120Z,69.15
2023-03-26T03:42:06.274Z,70.15
2023-03-26T03:44:33.394Z,72.07
2023-03-26T03:47:00.654Z,66.18
2023-03-26T03:49:27.807Z,75.40
2023-03-26T03:51:55.174Z,60.78
2023-03-26T03:54:22.206Z,60.75
2023-03-26T03:56:49.302Z,63.58
2023-03-26T03:59:16.428Z,62.35
2023-03-26T04:01:47.553Z,53.95
2023-03-26T04:04:14.634Z,49.55
2023-03-26T04:06:41.704Z,50.20
2023-03-26T04:09:10.389Z,51.50
2023-03-26T04:11:37.475Z,56.70
2023-03-26T04:14:04.587Z,45.63
2023-03-26T04:16:31.639Z,44.28
2023-03-26T04:18:58.765Z,42.20
2023-03-26T04:21:26.437Z,42.80
2023-03-26T04:23:54.407Z,42.58
2023-03-26T04:26:21.554Z,41.20
2023-03-26T04:28:50.185Z,38.28
2023-03-26T04:31:25.013Z,39.05
2023-03-26T04:33:55.443Z,37.72
2023-03-26T04:36:30.227Z,38.40
2023-03-26T04:38:58.601Z,41.60
2023-03-26T04:41:26.503Z,40.30
2023-03-26T04:43:55.628Z,47.28
2023-03-26T04:46:23.637Z,44.45
2023-03-26T04:48:51.536Z,42.47
2023-03-26T04:51:19.425Z,43.92
2023-03-26T04:53:54.218Z,39.10
2023-03-26T04:56:44.243Z,36.75
2023-03-26T04:59:13.998Z,40.95
2023-03-26T05:01:41.964Z,44.30
2023-03-26T05:04:09.083Z,33.85
2023-03-26T05:06:38.192Z,32.05
2023-03-26T05:09:05.156Z,29.90
2023-03-26T05:11:32.382Z,31.48
2023-03-26T05:13:59.455Z,31.92
2023-03-26T05:16:26.630Z,30.98
2023-03-26T05:18:54.242Z,34.42
2023-03-26T05:21:22.533Z,33.38
2023-03-26T05:23:49.623Z,35.53
2023-03-26T05:26:16.590Z,33.25
2023-03-26T05:28:43.645Z,28.25
2023-03-26T05:31:10.974Z,30.52
2023-03-26T05:33:38.489Z,28.15
2023-03-26T05:36:09.429Z,31.65
2023-03-26T05:38:39.666Z,28.60
2023-03-26T05:41:08.307Z,27.35
2023-03-26T05:43:35.463Z,32.90
2023-03-26T05:46:03.907Z,27.88
2023-03-26T05:48:31.010Z,30.10
2023-03-26T05:50:58.219Z,27.20
2023-03-26T05:53:26.284Z,36.28
2023-03-26T05:56:00.946Z,36.10
2023-03-26T05:58:32.565Z,37.55
2023-03-26T06:01:02.820Z,47.80
2023-03-26T06:03:29.913Z,40.75
2023-03-26T06:05:57.294Z,42.80
2023-03-26T06:08:24.341Z,41.45
2023-03-26T06:10:51.422Z,29.80
2023-03-26T06:13:19.259Z,33.10
2023-03-26T06:15:46.717Z,37.58
2023-03-26T06:18:13.906Z,34.65
2023-03-26T06:20:57.077Z,35.17
2023-03-26T06:23:24.525Z,31.77
2023-03-26T06:25:51.730Z,27.52
2023-03-26T06:28:18.828Z,27.73
2023-03-26T06:30:46.084Z,23.05
2023-03-26T06:33:13.190Z,24.05
2023-03-26T06:35:40.691Z,24.70
2023-03-26T06:38:07.986Z,24.52
2023-03-26T06:40:35.377Z,26.25
2023-03-26T06:43:08.557Z,29.95
2023-03-26T06:45:38.323Z,26.35
2023-03-26T06:48:07.238Z,34.22
2023-03-26T06:50:34.690Z,31.70
2023-03-26T06:53:02.063Z,27.13
2023-03-26T06:55:32.193Z,25.52
2023-03-26T06:57:59.537Z,25.73
2023-03-26T07:00:26.630Z,29.58
2023-03-26T07:02:54.047Z,27.80
2023-03-26T07:05:21.528Z,29.67
2023-03-26T07:07:49.982Z,29.60
2023-03-26T07:10:17.267Z,26.30
2023-03-26T07:12:44.639Z,30.92
2023-03-26T07:15:12.041Z,26.25
2023-03-26T07:17:39.647Z,23.38
2023-03-26T07:20:11.623Z,24.35
2023-03-26T07:22:41.690Z,20.50
2023-03-26T07:25:12.242Z,24.73
2023-03-26T07:28:03.446Z,26.73
2023-03-26T07:30:53.703Z,27.25
2023-03-26T07:33:31.152Z,30.98
2023-03-26T07:36:04.915Z,25.20
2023-03-26T07:38:53.483Z,22.17
2023-03-26T07:41:37.003Z,26.73
2023-03-26T07:44:22.259Z,28.17
2023-03-26T07:46:50.705Z,29.85
2023-03-26T07:49:21.312Z,24.05
2023-03-26T07:51:49.734Z,25.73
2023-03-26T07:54:19.670Z,26.95
2023-03-26T07:56:58.058Z,22.63
2023-03-26T07:59:45.095Z,24.15
2023-03-26T08:02:24.830Z,22.58
2023-03-26T08:05:13.141Z,23.77
2023-03-26T08:08:09.481Z,22.15
2023-03-26T08:11:22.899Z,20.83
2023-03-26T08:14:28.284Z,23.17
2023-03-26T08:17:08.150Z,17.55
2023-03-26T08:19:38.998Z,20.73
2023-03-26T08:22:14.018Z,21.40
2023-03-26T08:25:07.036Z,19.63
2023-03-26T08:27:41.634Z,17.75
2023-03-26T08:30:23.066Z,18.98
2023-03-26T08:33:17.212Z,17.17
2023-03-26T08:35:45.727Z,17.52
2023-03-26T08:38:14.362Z,19.63
2023-03-26T08:41:00.166Z,24.60
2023-03-26T08:43:48.576Z,28.25
2023-03-26T08:47:03.025Z,32.38
2023-03-26T08:50:04.605Z,35.78
2023-03-26T08:53:25.814Z,43.08
2023-03-26T08:55:58.435Z,32.47
2023-03-26T08:58:48.167Z,17.55
2023-03-26T09:01:34.207Z,15.15
2023-03-26T09:04:33.521Z,12.82
2023-03-26T09:30:41.574Z,8.68
2023-03-26T09:33:43.175Z,8.55
2023-03-26T09:36:27.988Z,6.97
2023-03-26T09:39:00.730Z,11.52
2023-03-26T09:41:44.245Z,6.70
2023-03-26T09:44:26.730Z,7.72
2023-03-26T09:47:10.007Z,5.60
2023-03-26T09:49:58.773Z,5.32
2023-03-26T09:53:07.579Z,4.00
2023-03-26T09:55:58.792Z,4.53
2023-03-26T10:05:23.660Z,3.45
2023-03-26T10:08:11.191Z,3.85
2023-03-26T10:10:56.857Z,4.75
2023-03-26T10:13:43.472Z,2.85
2023-03-26T10:40:59.851Z,5.15
2023-03-26T13:04:24.633Z,3.63
2023-03-26T13:07:10.614Z,4.00
2023-03-26T13:09:51.054Z,2.17
2023-03-26T13:12:28.625Z,3.42
2023-03-26T13:15:18.557Z,4.45
2023-03-26T13:18:25.124Z,2.55
2023-03-26T13:21:31.134Z,3.47
2023-03-26T13:24:23.095Z,2.92
2023-03-26T13:27:26.611Z,3.72
2023-03-26T13:33:59.591Z,4.93
2023-03-26T13:37:05.345Z,7.82
2023-03-26T13:40:14.401Z,3.22
2023-03-26T13:52:10.627Z,3.70
2023-03-26T14:00:27.308Z,2.85
2023-03-26T14:06:13.148Z,4.45
2023-03-26T14:08:43.731Z,3.58
2023-03-26T14:16:58.322Z,8.10
2023-03-26T14:24:59.031Z,5.32
2023-03-26T14:27:52.754Z,6.82
2023-03-26T15:10:26.973Z,6.28
2023-03-26T15:13:25.610Z,7.30
2023-03-26T15:16:17.899Z,6.28
2023-03-26T15:19:19.485Z,5.53
2023-03-26T15:22:13.269Z,6.03
2023-03-26T15:25:25.656Z,8.40
2023-03-26T15:33:35.162Z,7.38
2023-03-26T15:37:00.958Z,8.10
2023-03-26T15:40:20.159Z,7.38
2023-03-26T15:44:22.675Z,8.68
2023-03-26T15:47:04.449Z,11.73
2023-03-26T15:49:54.046Z,7.68
2023-03-26T15:52:49.457Z,9.15
2023-03-26T15:55:16.876Z,11.35
2023-03-26T15:57:49.490Z,9.68
2023-03-26T16:00:29.441Z,9.60
2023-03-26T16:03:47.131Z,12.23
2023-03-26T16:15:27.750Z,9.73
2023-03-26T16:18:23.169Z,14.63
2023-03-26T16:21:31.919Z,14.55
2023-03-26T16:24:10.949Z,17.75
2023-03-26T16:26:55.897Z,25.13
2023-03-26T16:32:34.663Z,26.75
2023-03-26T16:35:17.203Z,15.18
2023-03-26T16:38:13.075Z,16.42
2023-03-26T16:55:54.247Z,18.33
2023-03-26T17:02:23.433Z,26.77
2023-03-26T18:01:32.510Z,31.60
2023-03-26T18:04:04.262Z,29.63
2023-03-26T18:06:50.278Z,27.98
2023-03-26T18:17:40.587Z,27.27
2023-03-26T18:20:37.271Z,22.77
2023-03-26T18:32:04.313Z,30.48
2023-03-26T20:10:37.931Z,100.50
2023-03-26T20:23:59.665Z,127.85
2023-03-26T20:29:13.139Z,140.40
2023-03-26T20:31:43.895Z,140.93
2023-03-26T20:42:37.836Z,156.52
2023-03-26T20:45:53.159Z,170.32
2023-03-26T21:45:12.891Z,95.28
2023-03-26T21:48:01.190Z,92.85
2023-03-26T21:50:40.105Z,75.35
2023-03-26T21:55:53.124Z,92.38
2023-03-26T22:09:12.932Z,82.53
2023-03-26T22:11:47.308Z,90.53
2023-03-26T22:14:15.134Z,92.47
2023-03-26T22:19:08.902Z,93.57
2023-03-26T22:21:42.277Z,85.32
2023-03-26T22:24:12.484Z,75.15
2023-03-26T22:29:29.005Z,80.50
2023-03-26T23:24:08.794Z,66.55
2023-03-26T23:26:49.545Z,68.13
2023-03-26T23:29:27.251Z,73.65
2023-03-26T23:31:56.383Z,69.25
2023-03-26T23:34:23.855Z,64.78
2023-03-26T23:36:54.114Z,60.78
2023-03-26T23:50:21.749Z,53.95
2023-03-26T23:52:55.270Z,53.00
2023-03-26T23:55:29.938Z,53.70
2023-03-26T23:58:09.693Z,56.47
